createdAt,value
2022-09-23T00:00:00.234Z,3.60
2022-09-23T00:05:05.003Z,3.85
2022-09-23T00:10:09.335Z,4.40
2022-09-23T00:15:12.722Z,3.75
2022-09-23T00:20:17.561Z,4.30
2022-09-23T00:25:21.154Z,4.20
2022-09-23T00:30:24.504Z,4.13
2022-09-23T00:35:29.107Z,3.90
2022-09-23T00:40:35.049Z,4.13
2022-09-23T00:45:38.396Z,4.18
2022-09-23T00:50:43.276Z,4.50
2022-09-23T00:55:47.226Z,4.65
2022-09-23T01:00:50.168Z,4.50
2022-09-23T01:05:54.541Z,4.63
2022-09-23T01:11:04.087Z,4.20
2022-09-23T01:16:10.554Z,3.95
2022-09-23T01:21:30.595Z,4.20
2022-09-23T01:26:57.631Z,4.22
2022-09-23T01:32:04.120Z,4.55
2022-09-23T01:37:08.831Z,4.50
2022-09-23T01:42:17.408Z,4.43
2022-09-23T01:47:23.881Z,4.15
2022-09-23T01:52:28.572Z,5.25
2022-09-23T01:57:33.512Z,5.38
2022-09-23T02:02:40.854Z,5.20
2022-09-23T02:07:46.022Z,5.00
2022-09-23T02:12:49.738Z,5.05
2022-09-23T02:17:56.517Z,5.22
2022-09-23T02:23:03.100Z,5.80
2022-09-23T02:28:09.129Z,5.30
2022-09-23T02:33:17.108Z,5.22
2022-09-23T02:38:21.788Z,5.30
2022-09-23T02:43:29.985Z,4.88
2022-09-23T02:48:35.825Z,4.90
2022-09-23T02:53:39.004Z,5.07
2022-09-23T02:58:44.149Z,4.88
2022-09-23T03:03:50.894Z,4.88
2022-09-23T03:08:55.801Z,4.35
2022-09-23T03:14:06.749Z,4.78
2022-09-23T03:19:19.502Z,4.75
2022-09-23T03:24:22.575Z,4.88
2022-09-23T03:29:25.786Z,5.20
2022-09-23T03:34:30.680Z,5.18
2022-09-23T03:39:36.737Z,4.80
2022-09-23T03:44:43.716Z,4.70
2022-09-23T03:49:49.369Z,5.05
2022-09-23T03:54:52.376Z,4.85
2022-09-23T03:59:55.583Z,4.88
2022-09-23T04:04:59.973Z,5.05
2022-09-23T04:10:02.911Z,5.18
2022-09-23T04:15:07.019Z,5.18
2022-09-23T04:20:11.967Z,6.38
2022-09-23T04:25:15.232Z,5.07
2022-09-23T04:30:18.808Z,5.25
2022-09-23T04:35:26.209Z,5.38
2022-09-23T04:40:29.653Z,5.05
2022-09-23T04:45:32.530Z,5.68
2022-09-23T04:50:37.140Z,5.60
2022-09-23T04:55:40.114Z,5.72
2022-09-23T05:00:43.392Z,4.78
2022-09-23T05:05:47.996Z,5.82
2022-09-23T05:10:50.875Z,6.57
2022-09-23T05:15:59.235Z,5.93
2022-09-23T05:21:04.514Z,6.32
2022-09-23T05:26:08.787Z,6.15
2022-09-23T05:31:19.702Z,5.22
2022-09-23T05:36:24.894Z,6.70
2022-09-23T05:41:28.029Z,6.55
2022-09-23T05:46:31.773Z,5.95
2022-09-23T05:51:36.504Z,6.70
2022-09-23T05:56:39.862Z,6.75
2022-09-23T06:01:43.038Z,6.88
2022-09-23T06:06:47.672Z,7.30
2022-09-23T06:11:56.886Z,16.35
2022-09-23T06:17:02.317Z,8.57
2022-09-23T06:22:07.131Z,26.42
2022-09-23T06:27:10.789Z,17.58
2022-09-23T06:32:13.711Z,26.02
2022-09-23T06:37:20.461Z,17.65
2022-09-23T06:42:24.034Z,7.57
2022-09-23T06:47:27.278Z,6.97
2022-09-23T06:52:31.777Z,6.22
2022-09-23T06:57:35.948Z,5.88
2022-09-23T07:02:42.730Z,5.90
2022-09-23T07:07:47.200Z,5.15
2022-09-23T07:12:50.193Z,5.28
2022-09-23T07:17:53.637Z,4.35
2022-09-23T07:22:58.064Z,4.60
2022-09-23T07:28:01.105Z,5.20
2022-09-23T07:33:14.892Z,4.50
2022-09-23T07:38:30.246Z,4.30
2022-09-23T07:43:33.526Z,4.38
2022-09-23T07:48:39.531Z,4.18
2022-09-23T07:53:44.833Z,4.00
2022-09-23T07:58:59.822Z,4.43
2022-09-23T08:04:04.375Z,4.00
2022-09-23T08:09:09.265Z,4.40
2022-09-23T08:14:13.517Z,4.35
2022-09-23T08:19:16.747Z,4.22
2022-09-23T08:24:24.620Z,3.92
2022-09-23T08:29:30.749Z,4.47
2022-09-23T08:34:35.706Z,2.85
2022-09-23T08:39:40.202Z,3.47
2022-09-23T08:44:47.946Z,3.35
2022-09-23T08:50:00.446Z,3.10
2022-09-23T08:55:07.809Z,3.42
2022-09-23T09:00:15.803Z,2.85
2022-09-23T09:05:21.500Z,3.00
2022-09-23T09:10:26.773Z,2.85
2022-09-23T09:15:29.851Z,2.92
2022-09-23T09:20:38.088Z,3.08
2022-09-23T09:25:46.514Z,4.10
2022-09-23T09:30:53.269Z,3.35
2022-09-23T09:36:08.844Z,3.20
2022-09-23T09:41:15.529Z,2.90
2022-09-23T09:46:39.835Z,3.50
2022-09-23T09:51:43.271Z,3.20
2022-09-23T10:02:13.475Z,3.45
2022-09-23T10:07:17.091Z,3.83
2022-09-23T10:12:21.858Z,2.85
2022-09-23T10:17:25.606Z,2.85
2022-09-23T10:22:30.252Z,2.80
2022-09-23T10:27:35.998Z,2.80
2022-09-23T10:32:40.543Z,2.60
2022-09-23T10:37:45.276Z,2.40
2022-09-23T10:43:14.604Z,2.67
2022-09-23T10:48:21.272Z,2.53
2022-09-23T10:53:28.288Z,2.80
2022-09-23T10:58:50.609Z,2.40
2022-09-23T11:04:03.597Z,2.58
2022-09-23T11:09:20.125Z,2.40
2022-09-23T11:14:44.996Z,2.20
2022-09-23T11:20:02.041Z,2.05
2022-09-23T11:25:23.183Z,2.10
2022-09-23T11:30:29.638Z,1.90
2022-09-23T11:35:35.708Z,1.90
2022-09-23T11:40:43.956Z,1.92
2022-09-23T11:45:52.828Z,1.67
2022-09-23T11:50:58.078Z,1.70
2022-09-23T11:56:03.684Z,1.60
2022-09-23T12:01:10.285Z,1.38
2022-09-23T12:06:15.866Z,1.60
2022-09-23T12:11:24.549Z,1.50
2022-09-23T12:16:37.501Z,1.73
2022-09-23T12:21:51.566Z,1.48
2022-09-23T12:26:57.205Z,1.50
2022-09-23T12:32:07.392Z,1.33
2022-09-23T12:37:10.564Z,1.50
2022-09-23T12:42:19.819Z,1.40
2022-09-23T12:47:38.801Z,1.25
2022-09-23T12:52:42.097Z,1.40
2022-09-23T12:57:45.242Z,1.30
2022-09-23T13:03:13.897Z,1.30
2022-09-23T13:08:18.109Z,1.15
2022-09-23T13:13:23.646Z,1.20
2022-09-23T13:18:51.345Z,1.20
2022-09-23T13:24:19.532Z,1.30
2022-09-23T13:29:37.715Z,1.43
2022-09-23T13:34:44.216Z,1.30
2022-09-23T13:39:47.300Z,1.15
2022-09-23T13:44:52.458Z,1.23
2022-09-23T13:49:57.825Z,1.30
2022-09-23T13:55:01.115Z,1.00
2022-09-23T14:00:17.960Z,1.35
2022-09-23T14:05:24.691Z,0.82
2022-09-23T14:10:27.802Z,1.23
2022-09-23T14:15:31.072Z,1.20
2022-09-23T14:20:36.446Z,1.10
2022-09-23T14:25:39.569Z,1.33
2022-09-23T14:30:43.918Z,1.27
2022-09-23T14:35:49.456Z,1.23
2022-09-23T14:40:53.319Z,1.15
2022-09-23T14:45:57.207Z,1.10
2022-09-23T14:51:02.408Z,1.50
2022-09-23T14:56:14.282Z,1.55
2022-09-23T15:01:28.729Z,1.20
2022-09-23T15:06:33.185Z,1.30
2022-09-23T15:11:36.569Z,1.55
2022-09-23T15:16:40.019Z,1.60
2022-09-23T15:21:45.871Z,1.40
2022-09-23T15:26:52.605Z,1.35
2022-09-23T15:31:57.113Z,1.48
2022-09-23T15:37:05.351Z,1.35
2022-09-23T15:42:12.746Z,1.42
2022-09-23T15:47:17.178Z,1.50
2022-09-23T15:52:22.668Z,1.77
2022-09-23T15:57:26.048Z,1.90
2022-09-23T16:02:29.466Z,1.67
2022-09-23T16:07:36.387Z,2.10
2022-09-23T16:12:39.389Z,1.65
2022-09-23T16:17:43.925Z,2.20
2022-09-23T16:22:54.630Z,1.80
2022-09-23T16:27:57.644Z,1.70
2022-09-23T16:33:01.862Z,1.88
2022-09-23T16:38:06.819Z,2.53
2022-09-23T16:43:10.015Z,4.28
2022-09-23T16:48:13.010Z,8.10
2022-09-23T16:53:18.038Z,5.00
2022-09-23T16:58:24.014Z,2.40
2022-09-23T17:03:42.193Z,2.80
2022-09-23T17:08:48.385Z,2.20
2022-09-23T17:13:55.024Z,4.80
2022-09-23T17:18:58.084Z,5.55
2022-09-23T17:24:03.321Z,2.30
2022-09-23T17:29:06.481Z,2.50
2022-09-23T17:34:09.584Z,2.25
2022-09-23T17:39:20.133Z,2.80
2022-09-23T17:44:25.503Z,2.97
2022-09-23T17:49:28.895Z,7.00
2022-09-23T17:54:33.371Z,4.70
2022-09-23T17:59:36.541Z,5.55
2022-09-23T18:04:42.425Z,4.70
2022-09-23T18:09:46.869Z,5.65
2022-09-23T18:14:50.062Z,5.53
2022-09-23T18:19:55.931Z,4.00
2022-09-23T18:25:13.102Z,4.85
2022-09-23T18:30:25.427Z,6.60
2022-09-23T18:35:28.700Z,7.80
2022-09-23T18:40:34.991Z,4.85
2022-09-23T18:45:38.596Z,6.18
2022-09-23T18:50:43.320Z,4.93
2022-09-23T18:55:48.665Z,4.75
2022-09-23T19:00:53.229Z,3.58
2022-09-23T19:06:01.954Z,4.18
2022-09-23T19:11:07.280Z,3.30
2022-09-23T19:16:14.151Z,3.45
2022-09-23T19:21:20.575Z,3.45
2022-09-23T19:26:25.862Z,3.00
2022-09-23T19:31:30.193Z,3.80
2022-09-23T19:36:34.787Z,3.42
2022-09-23T19:41:39.400Z,3.40
2022-09-23T19:46:45.162Z,4.00
2022-09-23T19:51:48.524Z,2.92
2022-09-23T19:56:52.976Z,3.88
2022-09-23T20:01:56.016Z,3.95
2022-09-23T20:07:01.068Z,3.50
2022-09-23T20:12:05.670Z,3.60
2022-09-23T20:17:08.691Z,4.95
2022-09-23T20:22:32.931Z,4.90
2022-09-23T20:27:38.097Z,3.35
2022-09-23T20:32:44.598Z,3.25
2022-09-23T20:37:48.116Z,2.90
2022-09-23T20:42:53.328Z,3.35
2022-09-23T20:48:01.759Z,3.10
2022-09-23T20:53:05.207Z,3.53
2022-09-23T20:58:09.862Z,3.97
2022-09-23T21:03:14.452Z,3.97
2022-09-23T21:08:20.228Z,3.72
2022-09-23T21:13:24.747Z,4.38
2022-09-23T21:18:28.163Z,4.35
2022-09-23T21:23:32.322Z,4.35
2022-09-23T21:28:37.609Z,3.95
2022-09-23T21:33:43.090Z,3.83
2022-09-23T21:38:46.324Z,3.30
2022-09-23T21:43:55.616Z,3.60
2022-09-23T21:48:58.744Z,3.65
2022-09-23T21:54:02.233Z,3.60
2022-09-23T21:59:10.098Z,3.40
2022-09-23T22:04:16.017Z,3.92
2022-09-23T22:09:20.491Z,3.70
2022-09-23T22:14:28.721Z,3.97
2022-09-23T22:19:35.486Z,3.78
2022-09-23T22:24:38.849Z,3.40
2022-09-23T22:30:01.338Z,3.72
2022-09-23T22:35:04.927Z,3.60
2022-09-23T22:40:10.151Z,4.20
2022-09-23T22:45:14.894Z,4.22
2022-09-23T22:50:18.212Z,5.03
2022-09-23T22:55:21.253Z,5.05
2022-09-23T23:00:27.021Z,5.22
2022-09-23T23:05:30.245Z,5.10
2022-09-23T23:10:33.315Z,5.40
2022-09-23T23:15:38.818Z,5.70
2022-09-23T23:20:42.126Z,5.85
2022-09-23T23:25:45.384Z,5.80
2022-09-23T23:30:50.009Z,6.47
2022-09-23T23:35:53.066Z,5.57
2022-09-23T23:40:56.539Z,4.95
2022-09-23T23:46:01.628Z,5.20
2022-09-23T23:51:06.427Z,5.40
2022-09-23T23:56:10.492Z,5.15
